sensor_id;sensor_type;location;lat;lon;timestamp;temperature;humidity
9305;DHT22;4690;52.422;13.486;2023-11-19T00:14:19;4.70;99.90
9305;DHT22;4690;52.422;13.486;2023-11-19T00:16:45;4.80;99.90
9305;DHT22;4690;52.422;13.486;2023-11-19T00:19:10;4.70;99.90
9305;DHT22;4690;52.422;13.486;2023-11-19T00:21:37;4.70;99.90
9305;DHT22;4690;52.422;13.486;2023-11-19T00:24:03;4.70;99.90
9305;DHT22;4690;52.422;13.486;2023-11-19T00:26:29;4.80;99.90
9305;DHT22;4690;52.422;13.486;2023-11-19T00:28:55;4.70;99.90
9305;DHT22;4690;52.422;13.486;2023-11-19T00:31:21;4.80;99.90
9305;DHT22;4690;52.422;13.486;2023-11-19T00:33:47;4.70;99.90
9305;DHT22;4690;52.422;13.486;2023-11-19T00:36:13;4.80;99.90
9305;DHT22;4690;52.422;13.486;2023-11-19T00:38:38;4.80;99.90
9305;DHT22;4690;52.422;13.486;2023-11-19T00:41:04;4.80;99.90
9305;DHT22;4690;52.422;13.486;2023-11-19T00:43:30;4.80;99.90
9305;DHT22;4690;52.422;13.486;2023-11-19T00:45:56;4.80;99.90
9305;DHT22;4690;52.422;13.486;2023-11-19T00:48:21;4.80;99.90
9305;DHT22;4690;52.422;13.486;2023-11-19T00:50:47;4.90;99.90
9305;DHT22;4690;52.422;13.486;2023-11-19T00:53:13;4.80;99.90
9305;DHT22;4690;52.422;13.486;2023-11-19T00:55:38;4.90;99.90
9305;DHT22;4690;52.422;13.486;2023-11-19T00:58:04;4.90;99.90
9305;DHT22;4690;52.422;13.486;2023-11-19T01:00:30;4.80;99.90
9305;DHT22;4690;52.422;13.486;2023-11-19T01:02:57;4.90;99.90
9305;DHT22;4690;52.422;13.486;2023-11-19T01:05:23;4.80;99.90
9305;DHT22;4690;52.422;13.486;2023-11-19T01:07:49;4.80;99.90
9305;DHT22;4690;52.422;13.486;2023-11-19T01:10:15;4.80;99.90
9305;DHT22;4690;52.422;13.486;2023-11-19T01:12:42;4.80;99.90
9305;DHT22;4690;52.422;13.486;2023-11-19T01:15:08;4.80;99.90
9305;DHT22;4690;52.422;13.486;2023-11-19T01:17:34;4.90;99.90
9305;DHT22;4690;52.422;13.486;2023-11-19T01:19:59;4.90;99.90
9305;DHT22;4690;52.422;13.486;2023-11-19T01:22:25;4.90;99.90
9305;DHT22;4690;52.422;13.486;2023-11-19T01:24:51;4.90;99.90
9305;DHT22;4690;52.422;13.486;2023-11-19T01:27:17;4.90;99.90
9305;DHT22;4690;52.422;13.486;2023-11-19T01:29:43;4.90;99.90
9305;DHT22;4690;52.422;13.486;2023-11-19T01:32:09;5.00;99.90
9305;DHT22;4690;52.422;13.486;2023-11-19T01:34:34;5.00;99.90
9305;DHT22;4690;52.422;13.486;2023-11-19T01:37:01;5.00;99.90
9305;DHT22;4690;52.422;13.486;2023-11-19T01:39:27;5.00;99.90
9305;DHT22;4690;52.422;13.486;2023-11-19T01:41:52;5.10;99.90
9305;DHT22;4690;52.422;13.486;2023-11-19T01:44:19;5.10;99.90
9305;DHT22;4690;52.422;13.486;2023-11-19T01:46:46;5.10;99.90
9305;DHT22;4690;52.422;13.486;2023-11-19T01:49:15;5.10;99.90
9305;DHT22;4690;52.422;13.486;2023-11-19T01:51:43;5.20;99.90
9305;DHT22;4690;52.422;13.486;2023-11-19T01:54:10;5.10;99.90
9305;DHT22;4690;52.422;13.486;2023-11-19T01:56:38;5.10;99.90
9305;DHT22;4690;52.422;13.486;2023-11-19T01:59:07;5.10;99.90
9305;DHT22;4690;52.422;13.486;2023-11-19T02:01:36;5.10;99.90
9305;DHT22;4690;52.422;13.486;2023-11-19T02:04:06;5.10;99.90
9305;DHT22;4690;52.422;13.486;2023-11-19T02:06:34;5.00;99.90
9305;DHT22;4690;52.422;13.486;2023-11-19T02:09:06;5.00;99.90
9305;DHT22;4690;52.422;13.486;2023-11-19T02:11:34;5.00;99.90
9305;DHT22;4690;52.422;13.486;2023-11-19T02:14:00;4.90;99.90
9305;DHT22;4690;52.422;13.486;2023-11-19T02:16:26;4.90;99.90
9305;DHT22;4690;52.422;13.486;2023-11-19T02:18:53;4.90;99.90
9305;DHT22;4690;52.422;13.486;2023-11-19T02:21:19;4.90;99.90
9305;DHT22;4690;52.422;13.486;2023-11-19T02:23:45;5.00;99.90
9305;DHT22;4690;52.422;13.486;2023-11-19T02:28:53;5.10;99.90
9305;DHT22;4690;52.422;13.486;2023-11-19T02:31:19;5.10;99.90
9305;DHT22;4690;52.422;13.486;2023-11-19T02:33:45;5.10;99.90
9305;DHT22;4690;52.422;13.486;2023-11-19T02:36:11;5.10;99.90
9305;DHT22;4690;52.422;13.486;2023-11-19T02:38:37;5.10;99.90
9305;DHT22;4690;52.422;13.486;2023-11-19T02:41:03;5.10;99.90
9305;DHT22;4690;52.422;13.486;2023-11-19T02:43:33;5.20;99.90
9305;DHT22;4690;52.422;13.486;2023-11-19T02:46:03;5.20;99.90
9305;DHT22;4690;52.422;13.486;2023-11-19T02:48:35;5.20;99.90
9305;DHT22;4690;52.422;13.486;2023-11-19T02:51:02;5.20;99.90
9305;DHT22;4690;52.422;13.486;2023-11-19T02:53:34;5.20;99.90
9305;DHT22;4690;52.422;13.486;2023-11-19T02:56:02;5.20;99.90
9305;DHT22;4690;52.422;13.486;2023-11-19T02:58:37;5.20;99.90
9305;DHT22;4690;52.422;13.486;2023-11-19T03:01:04;5.20;99.90
9305;DHT22;4690;52.422;13.486;2023-11-19T03:03:38;5.20;99.90
9305;DHT22;4690;52.422;13.486;2023-11-19T03:06:06;5.20;99.90
9305;DHT22;4690;52.422;13.486;2023-11-19T03:08:34;5.20;99.90
9305;DHT22;4690;52.422;13.486;2023-11-19T03:11:01;5.20;99.90
9305;DHT22;4690;52.422;13.486;2023-11-19T03:13:27;5.20;99.90
9305;DHT22;4690;52.422;13.486;2023-11-19T03:15:53;5.10;99.90
9305;DHT22;4690;52.422;13.486;2023-11-19T03:18:21;5.30;99.90
9305;DHT22;4690;52.422;13.486;2023-11-19T03:20:47;5.20;99.90
9305;DHT22;4690;52.422;13.486;2023-11-19T03:23:13;5.30;99.90
9305;DHT22;4690;52.422;13.486;2023-11-19T03:25:39;5.30;99.90
9305;DHT22;4690;52.422;13.486;2023-11-19T03:28:05;5.30;99.90
9305;DHT22;4690;52.422;13.486;2023-11-19T03:30:31;5.30;99.90
9305;DHT22;4690;52.422;13.486;2023-11-19T03:32:58;5.30;99.90
9305;DHT22;4690;52.422;13.486;2023-11-19T03:35:28;5.30;99.90
9305;DHT22;4690;52.422;13.486;2023-11-19T03:37:53;5.30;99.90
9305;DHT22;4690;52.422;13.486;2023-11-19T03:40:19;5.30;99.90
9305;DHT22;4690;52.422;13.486;2023-11-19T03:42:46;5.30;99.90
9305;DHT22;4690;52.422;13.486;2023-11-19T03:45:12;5.30;99.90
9305;DHT22;4690;52.422;13.486;2023-11-19T03:47:38;5.30;99.90
9305;DHT22;4690;52.422;13.486;2023-11-19T03:50:04;5.20;99.90
9305;DHT22;4690;52.422;13.486;2023-11-19T03:52:31;5.20;99.90
9305;DHT22;4690;52.422;13.486;2023-11-19T03:54:57;5.10;99.90
9305;DHT22;4690;52.422;13.486;2023-11-19T03:57:23;5.10;99.90
9305;DHT22;4690;52.422;13.486;2023-11-19T03:59:49;5.00;99.90
9305;DHT22;4690;52.422;13.486;2023-11-19T04:02:15;4.90;99.90
9305;DHT22;4690;52.422;13.486;2023-11-19T04:04:42;4.80;99.90
9305;DHT22;4690;52.422;13.486;2023-11-19T04:07:07;4.80;99.90
9305;DHT22;4690;52.422;13.486;2023-11-19T04:09:33;4.80;99.90
9305;DHT22;4690;52.422;13.486;2023-11-19T04:12:00;4.70;99.90
9305;DHT22;4690;52.422;13.486;2023-11-19T04:14:26;4.70;99.90
9305;DHT22;4690;52.422;13.486;2023-11-19T04:16:52;4.60;99.90
9305;DHT22;4690;52.422;13.486;2023-11-19T04:19:19;4.60;99.90
9305;DHT22;4690;52.422;13.486;2023-11-19T04:21:45;4.60;99.90
9305;DHT22;4690;52.422;13.486;2023-11-19T04:24:13;4.60;99.90
9305;DHT22;4690;52.422;13.486;2023-11-19T04:26:43;4.60;99.90
9305;DHT22;4690;52.422;13.486;2023-11-19T04:29:14;4.60;99.90
9305;DHT22;4690;52.422;13.486;2023-11-19T04:31:45;4.60;99.90
9305;DHT22;4690;52.422;13.486;2023-11-19T04:34:11;4.60;99.90
9305;DHT22;4690;52.422;13.486;2023-11-19T04:36:37;4.60;99.90
9305;DHT22;4690;52.422;13.486;2023-11-19T04:39:04;4.60;99.90
9305;DHT22;4690;52.422;13.486;2023-11-19T04:41:46;4.60;99.90
9305;DHT22;4690;52.422;13.486;2023-11-19T04:44:13;4.60;99.90
9305;DHT22;4690;52.422;13.486;2023-11-19T04:46:39;4.60;99.90
9305;DHT22;4690;52.422;13.486;2023-11-19T04:49:04;4.60;99.90
9305;DHT22;4690;52.422;13.486;2023-11-19T04:51:30;4.60;99.90
9305;DHT22;4690;52.422;13.486;2023-11-19T04:53:56;4.60;99.90
9305;DHT22;4690;52.422;13.486;2023-11-19T04:56:22;4.60;99.90
9305;DHT22;4690;52.422;13.486;2023-11-19T04:58:48;4.60;99.90
9305;DHT22;4690;52.422;13.486;2023-11-19T05:01:14;4.70;99.90
9305;DHT22;4690;52.422;13.486;2023-11-19T05:03:44;4.70;99.90
9305;DHT22;4690;52.422;13.486;2023-11-19T05:06:10;4.70;99.90
9305;DHT22;4690;52.422;13.486;2023-11-19T05:08:36;4.70;99.90
9305;DHT22;4690;52.422;13.486;2023-11-19T05:11:02;4.70;99.90
9305;DHT22;4690;52.422;13.486;2023-11-19T05:13:29;4.70;99.90
9305;DHT22;4690;52.422;13.486;2023-11-19T05:15:54;4.70;99.90
9305;DHT22;4690;52.422;13.486;2023-11-19T05:18:20;4.70;99.90
9305;DHT22;4690;52.422;13.486;2023-11-19T05:20:46;4.70;99.90
9305;DHT22;4690;52.422;13.486;2023-11-19T05:23:12;4.70;99.90
9305;DHT22;4690;52.422;13.486;2023-11-19T05:25:38;4.70;99.90
9305;DHT22;4690;52.422;13.486;2023-11-19T05:28:03;4.70;99.90
9305;DHT22;4690;52.422;13.486;2023-11-19T05:30:29;4.70;99.90
9305;DHT22;4690;52.422;13.486;2023-11-19T05:32:55;4.70;99.90
9305;DHT22;4690;52.422;13.486;2023-11-19T05:35:21;4.70;99.90
9305;DHT22;4690;52.422;13.486;2023-11-19T05:37:46;4.80;99.90
9305;DHT22;4690;52.422;13.486;2023-11-19T05:40:12;4.70;99.90
9305;DHT22;4690;52.422;13.486;2023-11-19T05:42:41;4.80;99.90
9305;DHT22;4690;52.422;13.486;2023-11-19T05:45:08;4.70;99.90
9305;DHT22;4690;52.422;13.486;2023-11-19T05:47:37;4.70;99.90
9305;DHT22;4690;52.422;13.486;2023-11-19T05:50:03;4.80;99.90
9305;DHT22;4690;52.422;13.486;2023-11-19T05:52:31;4.80;99.90
9305;DHT22;4690;52.422;13.486;2023-11-19T05:55:00;4.80;99.90
9305;DHT22;4690;52.422;13.486;2023-11-19T05:57:29;4.80;99.90
9305;DHT22;4690;52.422;13.486;2023-11-19T05:59:55;4.80;99.90
9305;DHT22;4690;52.422;13.486;2023-11-19T06:02:21;4.80;99.90
9305;DHT22;4690;52.422;13.486;2023-11-19T06:04:47;4.80;99.90
9305;DHT22;4690;52.422;13.486;2023-11-19T06:07:13;4.80;99.90
9305;DHT22;4690;52.422;13.486;2023-11-19T06:09:40;4.80;99.90
9305;DHT22;4690;52.422;13.486;2023-11-19T06:12:07;4.80;99.90
9305;DHT22;4690;52.422;13.486;2023-11-19T06:14:33;4.90;99.90
9305;DHT22;4690;52.422;13.486;2023-11-19T06:16:58;4.90;99.90
9305;DHT22;4690;52.422;13.486;2023-11-19T06:19:25;4.90;99.90
9305;DHT22;4690;52.422;13.486;2023-11-19T06:21:51;4.90;99.90
9305;DHT22;4690;52.422;13.486;2023-11-19T06:24:16;4.90;99.90
9305;DHT22;4690;52.422;13.486;2023-11-19T06:26:42;4.90;99.90
9305;DHT22;4690;52.422;13.486;2023-11-19T06:29:08;4.90;99.90
9305;DHT22;4690;52.422;13.486;2023-11-19T06:31:34;4.90;99.90
9305;DHT22;4690;52.422;13.486;2023-11-19T06:34:00;5.00;99.90
9305;DHT22;4690;52.422;13.486;2023-11-19T06:36:25;4.90;99.90
9305;DHT22;4690;52.422;13.486;2023-11-19T06:38:52;5.00;99.90
9305;DHT22;4690;52.422;13.486;2023-11-19T06:41:18;5.00;99.90
9305;DHT22;4690;52.422;13.486;2023-11-19T06:43:43;5.00;99.90
9305;DHT22;4690;52.422;13.486;2023-11-19T06:46:16;5.00;99.90
9305;DHT22;4690;52.422;13.486;2023-11-19T06:48:43;5.00;99.90
9305;DHT22;4690;52.422;13.486;2023-11-19T06:51:10;5.00;99.90
9305;DHT22;4690;52.422;13.486;2023-11-19T06:53:39;5.00;99.90
9305;DHT22;4690;52.422;13.486;2023-11-19T06:56:24;5.10;99.90
9305;DHT22;4690;52.422;13.486;2023-11-19T06:58:51;5.10;99.90
9305;DHT22;4690;52.422;13.486;2023-11-19T07:01:17;5.10;99.90
9305;DHT22;4690;52.422;13.486;2023-11-19T07:03:47;5.20;99.90
9305;DHT22;4690;52.422;13.486;2023-11-19T07:06:13;5.20;99.90
9305;DHT22;4690;52.422;13.486;2023-11-19T07:08:41;5.20;99.90
9305;DHT22;4690;52.422;13.486;2023-11-19T07:11:10;5.20;99.90
9305;DHT22;4690;52.422;13.486;2023-11-19T07:13:37;5.20;99.90
9305;DHT22;4690;52.422;13.486;2023-11-19T07:16:03;5.20;99.90
9305;DHT22;4690;52.422;13.486;2023-11-19T07:18:29;5.20;99.90
9305;DHT22;4690;52.422;13.486;2023-11-19T07:20:55;5.20;99.90
9305;DHT22;4690;52.422;13.486;2023-11-19T07:23:21;5.30;99.90
9305;DHT22;4690;52.422;13.486;2023-11-19T07:25:47;5.30;99.90
9305;DHT22;4690;52.422;13.486;2023-11-19T07:28:13;5.30;99.90
9305;DHT22;4690;52.422;13.486;2023-11-19T07:30:39;5.30;99.90
9305;DHT22;4690;52.422;13.486;2023-11-19T07:33:05;5.40;99.90
9305;DHT22;4690;52.422;13.486;2023-11-19T07:35:32;5.40;99.90
9305;DHT22;4690;52.422;13.486;2023-11-19T07:37:58;5.40;99.90
9305;DHT22;4690;52.422;13.486;2023-11-19T07:40:24;5.40;99.90
9305;DHT22;4690;52.422;13.486;2023-11-19T07:42:50;5.50;99.90
9305;DHT22;4690;52.422;13.486;2023-11-19T07:45:16;5.50;99.90
9305;DHT22;4690;52.422;13.486;2023-11-19T07:47:43;5.50;99.90
9305;DHT22;4690;52.422;13.486;2023-11-19T07:50:12;5.50;99.90
9305;DHT22;4690;52.422;13.486;2023-11-19T07:52:39;5.60;99.90
9305;DHT22;4690;52.422;13.486;2023-11-19T07:55:05;5.60;99.90
9305;DHT22;4690;52.422;13.486;2023-11-19T07:57:31;5.60;99.90
9305;DHT22;4690;52.422;13.486;2023-11-19T07:59:57;5.60;99.90
9305;DHT22;4690;52.422;13.486;2023-11-19T08:02:23;5.70;99.90
9305;DHT22;4690;52.422;13.486;2023-11-19T08:04:50;5.70;99.90
9305;DHT22;4690;52.422;13.486;2023-11-19T08:07:20;5.70;99.90
9305;DHT22;4690;52.422;13.486;2023-11-19T08:09:47;5.70;99.90
9305;DHT22;4690;52.422;13.486;2023-11-19T08:12:13;5.80;99.90
9305;DHT22;4690;52.422;13.486;2023-11-19T08:14:43;5.80;99.90
9305;DHT22;4690;52.422;13.486;2023-11-19T08:17:09;5.80;99.90
9305;DHT22;4690;52.422;13.486;2023-11-19T08:19:35;5.90;99.90
9305;DHT22;4690;52.422;13.486;2023-11-19T08:22:01;5.90;99.90
9305;DHT22;4690;52.422;13.486;2023-11-19T08:24:27;6.00;99.90
9305;DHT22;4690;52.422;13.486;2023-11-19T08:26:53;6.10;99.90
9305;DHT22;4690;52.422;13.486;2023-11-19T08:29:19;6.10;99.90
9305;DHT22;4690;52.422;13.486;2023-11-19T08:31:45;6.20;99.90
9305;DHT22;4690;52.422;13.486;2023-11-19T08:34:11;6.30;99.90
9305;DHT22;4690;52.422;13.486;2023-11-19T08:36:37;6.40;99.90
9305;DHT22;4690;52.422;13.486;2023-11-19T08:39:03;6.50;99.90
9305;DHT22;4690;52.422;13.486;2023-11-19T08:41:29;6.50;99.90
9305;DHT22;4690;52.422;13.486;2023-11-19T08:43:54;6.60;99.90
9305;DHT22;4690;52.422;13.486;2023-11-19T08:46:20;6.70;99.90
9305;DHT22;4690;52.422;13.486;2023-11-19T08:48:46;6.70;99.90
9305;DHT22;4690;52.422;13.486;2023-11-19T08:51:15;6.80;99.90
9305;DHT22;4690;52.422;13.486;2023-11-19T08:53:40;6.80;99.90
9305;DHT22;4690;52.422;13.486;2023-11-19T08:56:06;6.90;99.90
9305;DHT22;4690;52.422;13.486;2023-11-19T08:58:33;6.90;99.90
9305;DHT22;4690;52.422;13.486;2023-11-19T09:00:58;6.90;99.90
9305;DHT22;4690;52.422;13.486;2023-11-19T09:03:24;7.00;99.90
9305;DHT22;4690;52.422;13.486;2023-11-19T09:05:55;7.10;99.90
9305;DHT22;4690;52.422;13.486;2023-11-19T09:08:21;7.10;99.90
9305;DHT22;4690;52.422;13.486;2023-11-19T09:10:46;7.20;99.90
9305;DHT22;4690;52.422;13.486;2023-11-19T09:13:12;7.20;99.90
9305;DHT22;4690;52.422;13.486;2023-11-19T09:15:38;7.30;99.90
9305;DHT22;4690;52.422;13.486;2023-11-19T09:18:04;7.30;99.90
9305;DHT22;4690;52.422;13.486;2023-11-19T09:20:30;7.30;99.90
9305;DHT22;4690;52.422;13.486;2023-11-19T09:23:03;7.50;99.90
9305;DHT22;4690;52.422;13.486;2023-11-19T09:25:28;7.60;99.90
9305;DHT22;4690;52.422;13.486;2023-11-19T09:27:54;7.70;99.90
9305;DHT22;4690;52.422;13.486;2023-11-19T09:30:20;7.80;99.90
9305;DHT22;4690;52.422;13.486;2023-11-19T09:32:46;8.00;99.90
9305;DHT22;4690;52.422;13.486;2023-11-19T09:35:11;8.10;99.90
9305;DHT22;4690;52.422;13.486;2023-11-19T09:37:40;8.30;99.90
9305;DHT22;4690;52.422;13.486;2023-11-19T09:40:06;8.40;99.90
9305;DHT22;4690;52.422;13.486;2023-11-19T09:42:44;8.60;99.90
9305;DHT22;4690;52.422;13.486;2023-11-19T09:45:15;8.70;99.90
9305;DHT22;4690;52.422;13.486;2023-11-19T09:47:45;8.80;99.90
9305;DHT22;4690;52.422;13.486;2023-11-19T09:50:18;9.00;99.90
9305;DHT22;4690;52.422;13.486;2023-11-19T09:52:45;9.10;99.90
9305;DHT22;4690;52.422;13.486;2023-11-19T09:55:13;9.20;99.90
9305;DHT22;4690;52.422;13.486;2023-11-19T09:57:40;9.40;99.90
9305;DHT22;4690;52.422;13.486;2023-11-19T10:00:07;9.40;99.90
9305;DHT22;4690;52.422;13.486;2023-11-19T10:02:36;9.40;99.90
9305;DHT22;4690;52.422;13.486;2023-11-19T10:05:11;9.60;99.90
9305;DHT22;4690;52.422;13.486;2023-11-19T10:07:38;9.70;99.90
9305;DHT22;4690;52.422;13.486;2023-11-19T10:10:05;9.80;99.90
9305;DHT22;4690;52.422;13.486;2023-11-19T10:12:31;9.80;99.90
9305;DHT22;4690;52.422;13.486;2023-11-19T10:14:57;9.80;99.90
9305;DHT22;4690;52.422;13.486;2023-11-19T10:17:28;9.90;99.90
9305;DHT22;4690;52.422;13.486;2023-11-19T10:19:55;9.90;99.90
9305;DHT22;4690;52.422;13.486;2023-11-19T10:22:23;10.00;99.90
9305;DHT22;4690;52.422;13.486;2023-11-19T10:24:49;10.20;99.90
9305;DHT22;4690;52.422;13.486;2023-11-19T10:27:15;10.30;99.90
9305;DHT22;4690;52.422;13.486;2023-11-19T10:29:48;10.40;99.90
9305;DHT22;4690;52.422;13.486;2023-11-19T10:32:14;10.40;99.90
9305;DHT22;4690;52.422;13.486;2023-11-19T10:34:40;10.50;99.90
9305;DHT22;4690;52.422;13.486;2023-11-19T10:37:07;10.60;99.90
9305;DHT22;4690;52.422;13.486;2023-11-19T10:39:52;10.70;99.90
9305;DHT22;4690;52.422;13.486;2023-11-19T10:42:22;10.70;99.90
9305;DHT22;4690;52.422;13.486;2023-11-19T10:44:48;10.80;99.90
9305;DHT22;4690;52.422;13.486;2023-11-19T10:47:14;10.90;99.90
9305;DHT22;4690;52.422;13.486;2023-11-19T10:49:42;11.00;99.90
9305;DHT22;4690;52.422;13.486;2023-11-19T10:52:09;11.10;99.90
9305;DHT22;4690;52.422;13.486;2023-11-19T10:54:35;11.10;99.90
9305;DHT22;4690;52.422;13.486;2023-11-19T10:57:02;11.20;99.90
9305;DHT22;4690;52.422;13.486;2023-11-19T10:59:30;11.40;99.90
9305;DHT22;4690;52.422;13.486;2023-11-19T11:02:03;11.40;99.90
9305;DHT22;4690;52.422;13.486;2023-11-19T11:04:33;11.40;99.90
9305;DHT22;4690;52.422;13.486;2023-11-19T11:07:05;11.40;99.90
9305;DHT22;4690;52.422;13.486;2023-11-19T11:09:32;11.30;99.90
9305;DHT22;4690;52.422;13.486;2023-11-19T11:11:59;11.40;99.90
9305;DHT22;4690;52.422;13.486;2023-11-19T11:14:27;11.40;99.90
9305;DHT22;4690;52.422;13.486;2023-11-19T11:16:53;11.50;99.90
9305;DHT22;4690;52.422;13.486;2023-11-19T11:19:22;11.40;99.90
9305;DHT22;4690;52.422;13.486;2023-11-19T11:21:53;11.40;99.90
9305;DHT22;4690;52.422;13.486;2023-11-19T11:27:29;11.30;99.90
9305;DHT22;4690;52.422;13.486;2023-11-19T11:30:35;11.20;99.90
9305;DHT22;4690;52.422;13.486;2023-11-19T11:33:20;11.20;99.90
9305;DHT22;4690;52.422;13.486;2023-11-19T11:36:22;11.20;99.90
9305;DHT22;4690;52.422;13.486;2023-11-19T11:38:49;11.20;99.90
9305;DHT22;4690;52.422;13.486;2023-11-19T11:41:22;11.20;99.90
9305;DHT22;4690;52.422;13.486;2023-11-19T11:43:50;11.20;99.90
9305;DHT22;4690;52.422;13.486;2023-11-19T11:49:06;11.40;99.90
9305;DHT22;4690;52.422;13.486;2023-11-19T11:54:11;11.60;99.90
9305;DHT22;4690;52.422;13.486;2023-11-19T11:57:03;11.80;99.90
9305;DHT22;4690;52.422;13.486;2023-11-19T12:02:08;12.10;99.90
9305;DHT22;4690;52.422;13.486;2023-11-19T12:04:35;12.40;99.90
9305;DHT22;4690;52.422;13.486;2023-11-19T12:07:08;12.60;99.90
9305;DHT22;4690;52.422;13.486;2023-11-19T12:09:42;12.50;99.90
9305;DHT22;4690;52.422;13.486;2023-11-19T12:12:22;12.50;99.90
9305;DHT22;4690;52.422;13.486;2023-11-19T12:20:03;12.20;99.90
9305;DHT22;4690;52.422;13.486;2023-11-19T12:22:41;12.10;99.90
9305;DHT22;4690;52.422;13.486;2023-11-19T12:25:09;12.00;99.90
9305;DHT22;4690;52.422;13.486;2023-11-19T12:27:39;12.10;99.90
9305;DHT22;4690;52.422;13.486;2023-11-19T12:30:07;12.10;99.90
9305;DHT22;4690;52.422;13.486;2023-11-19T12:32:45;12.00;99.90
9305;DHT22;4690;52.422;13.486;2023-11-19T12:35:12;12.00;99.90
9305;DHT22;4690;52.422;13.486;2023-11-19T12:37:42;12.00;99.90
9305;DHT22;4690;52.422;13.486;2023-11-19T12:40:15;12.10;99.90
9305;DHT22;4690;52.422;13.486;2023-11-19T12:42:43;12.00;99.90
9305;DHT22;4690;52.422;13.486;2023-11-19T12:45:12;12.00;99.90
9305;DHT22;4690;52.422;13.486;2023-11-19T12:47:42;12.00;99.90
9305;DHT22;4690;52.422;13.486;2023-11-19T12:50:09;12.00;99.90
9305;DHT22;4690;52.422;13.486;2023-11-19T12:52:39;12.00;99.90
9305;DHT22;4690;52.422;13.486;2023-11-19T12:55:23;12.00;99.90
9305;DHT22;4690;52.422;13.486;2023-11-19T12:57:50;12.00;99.90
9305;DHT22;4690;52.422;13.486;2023-11-19T13:00:21;12.10;99.90
9305;DHT22;4690;52.422;13.486;2023-11-19T13:02:52;12.20;99.90
9305;DHT22;4690;52.422;13.486;2023-11-19T13:05:26;12.30;99.90
9305;DHT22;4690;52.422;13.486;2023-11-19T13:08:04;12.30;99.90
9305;DHT22;4690;52.422;13.486;2023-11-19T13:10:52;12.30;99.90
9305;DHT22;4690;52.422;13.486;2023-11-19T13:13:20;12.40;99.90
9305;DHT22;4690;52.422;13.486;2023-11-19T13:15:46;12.30;99.90
9305;DHT22;4690;52.422;13.486;2023-11-19T13:18:12;12.40;99.90
9305;DHT22;4690;52.422;13.486;2023-11-19T13:20:39;12.40;99.90
9305;DHT22;4690;52.422;13.486;2023-11-19T13:23:06;12.30;99.90
9305;DHT22;4690;52.422;13.486;2023-11-19T13:25:32;12.30;99.90
9305;DHT22;4690;52.422;13.486;2023-11-19T13:27:58;12.30;99.90
9305;DHT22;4690;52.422;13.486;2023-11-19T13:30:25;12.20;99.90
9305;DHT22;4690;52.422;13.486;2023-11-19T13:32:52;12.30;99.90
9305;DHT22;4690;52.422;13.486;2023-11-19T13:35:20;12.40;99.90
9305;DHT22;4690;52.422;13.486;2023-11-19T13:37:47;12.40;99.90
9305;DHT22;4690;52.422;13.486;2023-11-19T13:40:13;12.50;99.90
9305;DHT22;4690;52.422;13.486;2023-11-19T13:42:41;12.50;99.90
9305;DHT22;4690;52.422;13.486;2023-11-19T13:45:11;12.40;99.90
9305;DHT22;4690;52.422;13.486;2023-11-19T13:47:39;12.40;99.90
9305;DHT22;4690;52.422;13.486;2023-11-19T13:50:08;12.40;99.90
9305;DHT22;4690;52.422;13.486;2023-11-19T13:52:35;12.30;99.90
9305;DHT22;4690;52.422;13.486;2023-11-19T13:55:02;12.20;99.90
9305;DHT22;4690;52.422;13.486;2023-11-19T13:57:30;12.20;99.90
9305;DHT22;4690;52.422;13.486;2023-11-19T13:59:56;12.10;99.90
9305;DHT22;4690;52.422;13.486;2023-11-19T14:02:22;12.10;99.90
9305;DHT22;4690;52.422;13.486;2023-11-19T14:04:48;12.10;99.90
9305;DHT22;4690;52.422;13.486;2023-11-19T14:07:14;12.10;99.90
9305;DHT22;4690;52.422;13.486;2023-11-19T14:09:42;12.10;99.90
9305;DHT22;4690;52.422;13.486;2023-11-19T14:12:08;12.10;99.90
9305;DHT22;4690;52.422;13.486;2023-11-19T14:14:35;12.10;99.90
9305;DHT22;4690;52.422;13.486;2023-11-19T14:17:04;12.10;99.90
9305;DHT22;4690;52.422;13.486;2023-11-19T14:19:29;12.10;99.90
9305;DHT22;4690;52.422;13.486;2023-11-19T14:21:55;12.10;99.90
9305;DHT22;4690;52.422;13.486;2023-11-19T14:24:21;12.10;99.90
9305;DHT22;4690;52.422;13.486;2023-11-19T14:26:47;12.20;99.90
9305;DHT22;4690;52.422;13.486;2023-11-19T14:29:15;12.20;99.90
9305;DHT22;4690;52.422;13.486;2023-11-19T14:31:40;12.20;99.90
9305;DHT22;4690;52.422;13.486;2023-11-19T14:34:06;12.20;99.90
9305;DHT22;4690;52.422;13.486;2023-11-19T14:36:32;12.10;99.90
9305;DHT22;4690;52.422;13.486;2023-11-19T14:38:58;12.10;99.90
9305;DHT22;4690;52.422;13.486;2023-11-19T14:41:24;12.10;99.90
9305;DHT22;4690;52.422;13.486;2023-11-19T14:43:50;12.00;99.90
9305;DHT22;4690;52.422;13.486;2023-11-19T14:46:16;12.00;99.90
9305;DHT22;4690;52.422;13.486;2023-11-19T14:48:41;12.10;99.90
9305;DHT22;4690;52.422;13.486;2023-11-19T14:51:07;12.00;99.90
9305;DHT22;4690;52.422;13.486;2023-11-19T14:53:34;12.00;99.90
9305;DHT22;4690;52.422;13.486;2023-11-19T14:56:00;12.00;99.90
9305;DHT22;4690;52.422;13.486;2023-11-19T14:58:26;12.00;99.90
9305;DHT22;4690;52.422;13.486;2023-11-19T15:00:52;12.00;99.90
9305;DHT22;4690;52.422;13.486;2023-11-19T15:03:18;11.90;99.90
9305;DHT22;4690;52.422;13.486;2023-11-19T15:05:47;11.90;99.90
9305;DHT22;4690;52.422;13.486;2023-11-19T15:08:14;11.90;99.90
9305;DHT22;4690;52.422;13.486;2023-11-19T15:10:42;11.90;99.90
9305;DHT22;4690;52.422;13.486;2023-11-19T15:13:10;11.80;99.90
9305;DHT22;4690;52.422;13.486;2023-11-19T15:15:36;11.80;99.90
9305;DHT22;4690;52.422;13.486;2023-11-19T15:18:04;11.80;99.90
9305;DHT22;4690;52.422;13.486;2023-11-19T15:20:30;11.60;99.90
9305;DHT22;4690;52.422;13.486;2023-11-19T15:22:57;11.60;99.90
9305;DHT22;4690;52.422;13.486;2023-11-19T15:25:23;11.50;99.90
9305;DHT22;4690;52.422;13.486;2023-11-19T15:27:49;11.40;99.90
9305;DHT22;4690;52.422;13.486;2023-11-19T15:30:16;11.40;99.90
9305;DHT22;4690;52.422;13.486;2023-11-19T15:32:42;11.40;99.90
9305;DHT22;4690;52.422;13.486;2023-11-19T15:35:11;11.40;99.90
9305;DHT22;4690;52.422;13.486;2023-11-19T15:37:38;11.30;99.90
9305;DHT22;4690;52.422;13.486;2023-11-19T15:40:06;11.30;99.90
9305;DHT22;4690;52.422;13.486;2023-11-19T15:42:36;11.20;99.90
9305;DHT22;4690;52.422;13.486;2023-11-19T15:45:02;11.20;99.90
9305;DHT22;4690;52.422;13.486;2023-11-19T15:47:35;11.20;99.90
9305;DHT22;4690;52.422;13.486;2023-11-19T15:50:02;11.20;99.90
9305;DHT22;4690;52.422;13.486;2023-11-19T15:52:31;11.30;99.90
9305;DHT22;4690;52.422;13.486;2023-11-19T15:54:57;11.30;99.90
9305;DHT22;4690;52.422;13.486;2023-11-19T15:57:23;11.30;99.90
9305;DHT22;4690;52.422;13.486;2023-11-19T15:59:49;11.30;99.90
9305;DHT22;4690;52.422;13.486;2023-11-19T16:02:16;11.30;99.90
9305;DHT22;4690;52.422;13.486;2023-11-19T16:04:42;11.40;99.90
9305;DHT22;4690;52.422;13.486;2023-11-19T16:07:13;11.30;99.90
9305;DHT22;4690;52.422;13.486;2023-11-19T16:09:42;11.40;99.90
9305;DHT22;4690;52.422;13.486;2023-11-19T16:12:09;11.40;99.90
9305;DHT22;4690;52.422;13.486;2023-11-19T16:14:35;11.40;99.90
9305;DHT22;4690;52.422;13.486;2023-11-19T16:17:02;11.40;99.90
9305;DHT22;4690;52.422;13.486;2023-11-19T16:19:28;11.40;99.90
9305;DHT22;4690;52.422;13.486;2023-11-19T16:21:54;11.30;99.90
9305;DHT22;4690;52.422;13.486;2023-11-19T16:24:20;11.30;99.90
9305;DHT22;4690;52.422;13.486;2023-11-19T16:26:45;11.30;99.90
9305;DHT22;4690;52.422;13.486;2023-11-19T16:29:11;11.20;99.90